Friday, October 19, 2018, 11:31 AM EDT
Back to Local

KBGR, Bangor Int'l Airport

Location: Bangor, ME, United States Lat: 44.8
Local Time: 11:31 AM EDT (15:31 GMT) Lon: -68.817
Time Zone: US/Eastern Elev: 193 ft

Show me the last for .
Show Decoded

2018-10-19 10:53 METAR KBGR 191453Z 19008KT 10SM FEW050 SCT070 07/M03 A3009 RMK AO2 SLP191
                 T00671028 58017 =
2018-10-19 09:53 METAR KBGR 191353Z 19006KT 10SM OVC060 03/M04 A3011 RMK AO2 SLP199 T00331044 =
2018-10-19 08:53 METAR KBGR 191253Z 19005KT 10SM OVC042 02/M05 A3013 RMK AO2 SLP204 T00221050 =
2018-10-19 07:53 METAR KBGR 191153Z 18004KT 10SM OVC040 02/M05 A3014 RMK AO2 SLP208 T00171050
                 10017 21006 56004 =
2018-10-19 06:53 METAR KBGR 191053Z 20003KT 10SM SCT044 OVC070 02/M06 A3014 RMK AO2 SLP208
                 T00171056 =
2018-10-19 05:53 METAR KBGR 190953Z 19004KT 10SM OVC070 01/M06 A3014 RMK AO2 SLP207 T00111056 =
2018-10-19 04:53 METAR KBGR 190853Z 18003KT 10SM BKN050 OVC075 01/M06 A3015 RMK AO2 SLP211
                 T00111056 58004 =
2018-10-19 03:53 METAR KBGR 190753Z 20003KT 10SM SCT050 BKN065 OVC090 01/M06 A3016 RMK AO2 SLP214
                 T00061061 =
2018-10-19 02:53 METAR KBGR 190653Z 21004KT 10SM SCT060 OVC100 01/M07 A3016 RMK AO2 SLP214
                 T00061067 =
2018-10-19 01:53 METAR KBGR 190553Z 23003KT 10SM FEW120 M01/M07 A3016 RMK AO2 SLP216 T10061067
                 10022 21006 51002 =
2018-10-19 00:53 METAR KBGR 190453Z 26004KT 10SM FEW090 M01/M08 A3016 RMK AO2 SLP213 T10061078
                 400611006 =
2018-10-18 23:53 METAR KBGR 190353Z 26004KT 10SM CLR M01/M08 A3016 RMK AO2 SLP216 T10061078 =
2018-10-18 22:53 METAR KBGR 190253Z 26004KT 10SM CLR 00/M08 A3016 RMK AO2 SLP213 T00001083 51004
                 =
2018-10-18 21:53 METAR KBGR 190153Z 29006KT 10SM CLR 01/M09 A3015 RMK AO2 SLP213 T00061094 =
2018-10-18 20:53 METAR KBGR 190053Z 30007KT 10SM FEW080 01/M10 A3016 RMK AO2 SLP214 T00111100 =
2018-10-18 19:53 METAR KBGR 182353Z 30008KT 10SM FEW080 02/M11 A3014 RMK AO2 SLP209 60000
                 T00221106 10061 20017 51027 =
2018-10-18 18:53 METAR KBGR 182253Z 27005KT 10SM FEW080 02/M10 A3012 RMK AO2 SLP201 T00221100 =
2018-10-18 17:53 METAR KBGR 182153Z 30012KT 10SM FEW080 03/M09 A3009 RMK AO2 PK WND 31028/2114
                 SLP192 T00281089 =
2018-10-18 16:53 METAR KBGR 182053Z 31011G24KT 10SM FEW075 SCT085 04/M11 A3006 RMK AO2 PK WND
                 31030/1956 RAB02E12 SLP182 P0000 60000 T00391106 53022 =
2018-10-18 15:53 METAR KBGR 181953Z 30014G27KT 10SM SCT075 BKN090 04/M11 A3004 RMK AO2 PK WND
                 33032/1943 SLP173 T00441106 =
2018-10-18 14:53 METAR KBGR 181853Z 29015G29KT 10SM SCT075 05/M11 A3001 RMK AO2 PK WND 32033/1842
                 SLP164 T00501106 =
2018-10-18 13:53 METAR KBGR 181753Z 31020G32KT 10SM BKN075 06/M09 A3000 RMK AO2 PK WND 32034/1701
                 SLP159 T00561094 10061 20017 53002 =
2018-10-18 12:53 METAR KBGR 181653Z 30016G26KT 10SM SCT060 04/M08 A3000 RMK AO2 PK WND 33031/1639
                 SLP158 T00441083 =
2018-10-18 11:53 METAR KBGR 181553Z 30018G29KT 10SM BKN060 05/M08 A2999 RMK AO2 PK WND 31031/1534
                 SLP156 T00501083 =

Support USWX by starting your Amazon purchase here.